Time;durP1;ratioP1;P1;durP2;ratioP2;P2;SDS_P1;SDS_P2;PMS_P1;PMS_P2;Temp;Humidity;BMP_temperature;BMP_pressure;BME280_temperature;BME280_humidity;BME280_pressure;Samples;Min_cycle;Max_cycle;Signal;HPM_P1;HPM_P2
2022/10/30 07:23:28;;;;;;;0.55;0.55;;;17.70;81.50;;;17.57;69.39;95481.72;5113751;27;20543;-76
2022/10/30 07:26:08;;;;;;;0.50;0.50;;;17.80;82.60;;;18.33;67.94;95486.72;5079005;28;20227;-76
2022/10/30 07:28:37;;;;;;;0.50;0.50;;;18.10;82.40;;;18.94;66.32;95479.44;5107730;28;20205;-76
2022/10/30 07:31:13;;;;;;;0.50;0.50;;;18.60;81.90;;;19.50;65.18;95477.22;5106978;28;20213;-76
2022/10/30 07:34:12;;;;;;;0.43;0.43;;;19.00;81.00;;;19.98;64.16;95466.47;5091490;28;20646;-76
2022/10/30 07:36:56;;;;;;;0.52;0.52;;;19.60;80.80;;;20.43;63.19;95473.69;5111048;28;20514;-76
2022/10/30 07:39:27;;;;;;;0.50;0.50;;;19.90;80.00;;;20.75;62.37;95475.84;5075407;28;20208;-76
2022/10/30 07:42:13;;;;;;;0.50;0.50;;;20.30;79.50;;;21.09;62.24;95475.00;5077427;28;20212;-76
2022/10/30 07:44:59;;;;;;;0.50;0.50;;;20.60;79.00;;;21.36;61.88;95477.00;5092230;28;20193;-77
2022/10/30 07:47:53;;;;;;;0.40;0.40;;;20.90;78.50;;;21.58;61.32;95469.03;5091481;28;20206;-76
2022/10/30 07:50:33;;;;;;;0.40;0.40;;;21.20;78.00;;;21.82;60.69;95468.78;5076601;28;20200;-76
2022/10/30 07:53:00;;;;;;;0.40;0.40;;;21.40;77.70;;;22.01;60.37;95477.31;5108167;28;20522;-76
2022/10/30 07:55:30;;;;;;;0.40;0.40;;;21.60;77.40;;;22.16;59.75;95464.09;5108416;28;20201;-76
2022/10/30 07:58:17;;;;;;;0.40;0.40;;;21.80;77.10;;;22.34;59.41;95467.47;5088064;28;20585;-76
2022/10/30 08:01:11;;;;;;;0.40;0.40;;;22.00;76.80;;;22.47;59.13;95459.09;5067856;28;20245;-76
2022/10/30 08:03:38;;;;;;;0.40;0.40;;;22.20;76.50;;;22.55;58.84;95455.13;5091307;28;20254;-76
2022/10/30 08:06:12;;;;;;;0.40;0.40;;;22.30;76.30;;;22.71;58.49;95464.09;5092858;28;20183;-77
2022/10/30 08:08:39;;;;;;;0.50;0.50;;;22.40;76.00;;;22.80;58.80;95457.22;5107979;28;20212;-77
2022/10/30 08:11:35;;;;;;;0.40;0.40;;;22.50;75.80;;;22.90;57.93;95458.34;5090508;28;20240;-77
2022/10/30 08:14:03;;;;;;;0.40;0.40;;;22.60;75.50;;;22.96;57.82;95447.44;5091330;28;20202;-77
2022/10/30 08:16:31;;;;;;;0.35;0.35;;;22.70;75.30;;;23.01;57.62;95442.09;5107535;28;20210;-77
2022/10/30 08:18:58;;;;;;;0.30;0.30;;;22.80;75.20;;;23.15;57.50;95457.72;5107831;28;20303;-77
2022/10/30 08:21:26;;;;;;;0.40;0.40;;;22.90;75.00;;;23.22;57.21;95458.31;5107763;28;20268;-77
2022/10/30 08:23:59;;;;;;;0.40;0.40;;;22.90;74.80;;;23.27;57.05;95458.34;5109743;28;20197;-76
2022/10/30 08:26:29;;;;;;;0.40;0.40;;;23.00;74.60;;;23.34;56.99;95463.47;5108431;28;20291;-77
2022/10/30 08:29:05;;;;;;;0.40;0.40;;;23.10;74.50;;;23.38;56.84;95463.78;5091772;28;20548;-84
2022/10/30 08:31:32;;;;;;;0.40;0.40;;;23.20;74.30;;;23.44;56.64;95470.75;5090992;28;20190;-76
2022/10/30 08:34:03;;;;;;;0.30;0.30;;;23.20;74.20;;;23.48;56.36;95464.59;5081193;28;20281;-77
2022/10/30 08:36:56;;;;;;;0.60;0.60;;;23.30;74.10;;;23.52;56.34;95467.56;5076950;28;20202;-77
2022/10/30 08:39:24;;;;;;;0.40;0.40;;;23.40;73.90;;;23.52;56.31;95458.75;5060511;28;20629;-77
2022/10/30 08:42:17;;;;;;;0.40;0.40;;;23.40;73.70;;;23.59;56.13;95462.00;5061725;28;20218;-76
2022/10/30 08:44:44;;;;;;;0.50;0.50;;;23.40;73.50;;;23.61;56.09;95455.31;5061828;28;20195;-76
2022/10/30 08:47:30;;;;;;;0.40;0.40;;;23.50;73.40;;;23.63;55.60;95457.72;5091311;28;20241;-77
2022/10/30 08:49:58;;;;;;;0.30;0.30;;;23.50;73.40;;;23.67;55.62;95467.66;5093438;28;20256;-77
2022/10/30 08:52:28;;;;;;;0.40;0.40;;;23.50;73.10;;;23.67;55.58;95462.28;5076619;28;20208;-77
2022/10/30 08:54:56;;;;;;;0.30;0.30;;;23.50;73.00;;;23.73;55.44;95465.00;5077265;28;20504;-77
2022/10/30 08:57:26;;;;;;;0.30;0.30;;;23.60;73.00;;;23.77;55.46;95463.41;5093269;28;20199;-77
2022/10/30 08:59:55;;;;;;;0.30;0.30;;;23.60;72.80;;;23.77;55.33;95458.84;5060137;28;20220;-77
2022/10/30 09:02:41;;;;;;;0.40;0.40;;;23.60;72.70;;;23.78;54.98;95462.34;5076831;28;20221;-77
2022/10/30 09:05:27;;;;;;;0.43;0.43;;;23.70;72.60;;;23.76;55.17;95454.56;5076718;28;20245;-77
2022/10/30 09:08:30;;;;;;;0.50;0.50;;;23.70;72.50;;;23.80;54.85;95458.34;5043958;28;20179;-77
2022/10/30 09:11:08;;;;;;;0.47;0.47;;;23.70;72.30;;;23.81;54.84;95456.47;5057250;28;20209;-79
2022/10/30 09:13:36;;;;;;;0.38;0.38;;;23.70;72.20;;;23.79;54.99;95446.00;5076679;28;20283;-79
2022/10/30 09:16:05;;;;;;;0.40;0.40;;;23.70;72.10;;;23.81;54.46;95453.78;5076798;28;20622;-78
2022/10/30 09:18:35;;;;;;;0.35;0.35;;;23.70;71.90;;;23.87;54.37;95462.66;5093625;28;20302;-80
2022/10/30 09:21:03;;;;;;;0.30;0.30;;;23.70;71.80;;;23.85;54.36;95454.84;5059847;28;20195;-79
2022/10/30 09:23:36;;;;;;;0.40;0.40;;;23.70;71.70;;;23.86;54.22;95453.78;5077048;28;20260;-79
2022/10/30 09:26:24;;;;;;;0.40;0.40;;;23.70;71.70;;;23.88;54.11;95456.22;5073157;28;20207;-79
2022/10/30 09:28:59;;;;;;;0.47;0.47;;;23.80;71.70;;;23.87;54.13;95457.28;5076968;28;20218;-79
2022/10/30 09:31:44;;;;;;;0.50;0.50;;;23.80;71.60;;;23.86;53.96;95467.19;5076457;28;20336;-79
2022/10/30 09:34:16;;;;;;;0.35;0.35;;;23.80;71.40;;;23.89;54.15;95472.03;5093018;28;20218;-79
2022/10/30 09:36:47;;;;;;;0.35;0.35;;;23.80;71.40;;;23.86;53.80;95475.22;5092431;28;20214;-79
2022/10/30 09:39:16;;;;;;;0.40;0.40;;;23.80;71.30;;;23.89;53.87;95472.03;5059835;28;20225;-79
2022/10/30 09:41:57;;;;;;;0.40;0.40;;;23.80;72.10;;;23.92;53.61;95479.56;5076012;28;20195;-79
2022/10/30 09:45:05;;;;;;;0.40;0.40;;;23.80;70.90;;;23.90;53.42;95479.00;5059590;28;20201;-79
2022/10/30 09:48:37;;;;;;;0.47;0.47;;;23.80;71.00;;;23.87;53.46;95481.41;5078637;28;20186;-79
2022/10/30 09:51:27;;;;;;;0.40;0.40;;;23.80;71.00;;;23.89;53.36;95479.25;5091417;28;20195;-79
2022/10/30 09:54:35;;;;;;;0.50;0.50;;;23.80;70.70;;;23.88;53.33;95472.31;5092860;28;20223;-79
2022/10/30 09:57:22;;;;;;;0.32;0.32;;;23.80;70.90;;;23.89;53.17;95479.25;5068175;28;20198;-79
2022/10/30 10:00:05;;;;;;;0.50;0.50;;;23.80;70.60;;;23.88;53.10;95470.41;5075492;28;20213;-79
2022/10/30 10:02:58;;;;;;;0.40;0.40;;;23.80;70.50;;;23.91;53.11;95477.94;5076421;28;20262;-79
2022/10/30 10:05:58;;;;;;;0.43;0.43;;;23.80;70.50;;;23.88;53.03;95467.75;5093423;28;20195;-80
2022/10/30 10:08:59;;;;;;;0.45;0.45;;;23.80;70.40;;;23.89;52.91;95472.03;5095975;28;20285;-79
2022/10/30 10:12:14;;;;;;;0.50;0.50;;;23.80;70.50;;;23.88;52.96;95475.78;5061863;28;20285;-79
2022/10/30 10:14:46;;;;;;;0.30;0.30;;;23.80;70.40;;;23.87;53.13;95468.81;5075489;28;20257;-79
2022/10/30 10:17:38;;;;;;;0.30;0.30;;;23.80;70.30;;;23.88;52.62;95465.06;5074978;28;20613;-79
2022/10/30 10:20:14;;;;;;;0.40;0.40;;;23.80;70.20;;;23.90;52.88;95465.59;5075029;28;20252;-79
2022/10/30 10:22:49;;;;;;;0.47;0.47;;;23.80;70.30;;;23.85;52.56;95449.50;5058345;28;20226;-79
2022/10/30 10:25:19;;;;;;;0.20;0.20;;;23.80;70.10;;;23.94;52.74;95460.56;5092014;28;20280;-79
2022/10/30 10:28:16;;;;;;;0.32;0.32;;;23.80;70.10;;;23.93;52.69;95456.28;5058695;28;20202;-80
2022/10/30 10:31:07;;;;;;;0.40;0.40;;;23.80;70.00;;;23.90;52.54;95444.19;5074906;28;20579;-79
2022/10/30 10:33:47;;;;;;;0.38;0.38;;;23.80;69.90;;;23.92;52.42;95439.38;5074737;28;20309;-79
2022/10/30 10:36:44;;;;;;;0.43;0.43;;;23.90;70.20;;;23.89;52.45;95433.69;5058838;28;20606;-79
2022/10/30 10:39:43;;;;;;;0.30;0.30;;;23.80;69.90;;;23.94;52.32;95442.59;5042389;28;20209;-79
2022/10/30 10:42:16;;;;;;;0.45;0.45;;;23.80;69.80;;;23.95;52.67;95438.06;5059677;28;20285;-79
2022/10/30 10:45:20;;;;;;;0.50;0.50;;;23.80;69.70;;;23.88;52.44;95438.25;5075917;28;20204;-79
2022/10/30 10:48:25;;;;;;;0.43;0.43;;;23.80;69.80;;;23.93;52.45;95445.56;5075077;28;20198;-80
2022/10/30 10:51:04;;;;;;;0.50;0.50;;;23.80;69.90;;;23.94;52.39;95447.97;5044625;28;20210;-80
2022/10/30 10:54:14;;;;;;;0.30;0.30;;;23.90;69.80;;;23.91;52.18;95440.44;5074647;28;20199;-79
2022/10/30 10:56:47;;;;;;;0.30;0.30;;;23.80;69.70;;;23.94;52.06;95439.91;5081140;28;20208;-79
2022/10/30 10:59:22;;;;;;;0.40;0.40;;;23.80;69.70;;;23.97;52.24;95438.59;5074814;28;20211;-79
2022/10/30 11:02:05;;;;;;;0.47;0.47;;;23.90;69.60;;;24.00;51.96;95442.59;5075496;28;20221;-79
2022/10/30 11:04:44;;;;;;;0.38;0.38;;;23.90;69.70;;;24.02;52.02;95441.28;5074829;28;20183;-79
2022/10/30 11:07:29;;;;;;;0.40;0.40;;;23.90;69.60;;;23.93;51.89;95427.59;5074403;28;20261;-79
2022/10/30 11:09:57;;;;;;;0.40;0.40;;;23.90;69.70;;;24.03;52.10;95442.09;5074773;28;20258;-79
2022/10/30 11:12:37;;;;;;;0.40;0.40;;;23.90;69.60;;;23.93;52.04;95419.56;5074317;28;20233;-79
2022/10/30 11:15:15;;;;;;;0.60;0.60;;;23.90;69.40;;;24.03;51.56;95432.16;5075958;28;20252;-79
2022/10/30 11:18:07;;;;;;;0.40;0.40;;;23.90;69.40;;;24.01;51.68;95428.97;5075445;28;20593;-79
2022/10/30 11:20:59;;;;;;;0.40;0.40;;;23.90;69.30;;;23.96;52.01;95423.56;5074458;28;20183;-79
2022/10/30 11:23:47;;;;;;;0.40;0.40;;;23.90;69.20;;;23.96;51.78;95420.91;5091107;28;20293;-79
2022/10/30 11:26:19;;;;;;;0.40;0.40;;;23.90;69.30;;;24.04;51.77;95433.00;5074608;28;20195;-79
2022/10/30 11:29:02;;;;;;;0.30;0.30;;;23.90;69.20;;;24.05;51.62;95427.34;5074292;28;20290;-79
2022/10/30 11:31:37;;;;;;;0.40;0.40;;;23.90;69.20;;;23.99;51.58;95420.38;5108329;28;20278;-79
2022/10/30 11:34:16;;;;;;;0.50;0.50;;;23.90;69.20;;;24.06;51.47;95430.84;5074377;28;20214;-80
2022/10/30 11:36:51;;;;;;;0.30;0.30;;;23.90;69.00;;;24.03;51.45;95426.81;5074514;28;20240;-80
2022/10/30 11:39:26;;;;;;;0.50;0.50;;;24.00;69.20;;;24.06;51.39;95433.50;5091221;28;20178;-80
2022/10/30 11:42:10;;;;;;;0.50;0.50;;;23.90;68.90;;;24.08;51.21;95426.84;5074167;28;20197;-80
2022/10/30 11:44:48;;;;;;;0.43;0.43;;;23.90;69.00;;;24.09;51.30;95424.97;5074022;28;20210;-77
2022/10/30 11:47:22;;;;;;;0.30;0.30;;;24.00;69.00;;;24.06;51.14;95417.44;5057447;28;20216;-77
2022/10/30 11:50:04;;;;;;;0.30;0.30;;;23.90;69.00;;;24.03;51.26;95407.25;5074080;28;20171;-77
2022/10/30 11:52:39;;;;;;;0.40;0.40;;;24.00;68.90;;;24.09;51.44;95412.34;5073850;28;20525;-77
2022/10/30 11:55:26;;;;;;;0.60;0.60;;;23.90;68.80;;;24.10;51.38;95405.94;5090899;28;20187;-77
2022/10/30 11:57:58;;;;;;;0.40;0.40;;;23.90;68.90;;;24.10;50.89;95411.28;5091056;28;20179;-77
2022/10/30 12:00:31;;;;;;;0.40;0.40;;;23.90;68.70;;;24.09;50.98;95401.63;5074146;28;20545;-77
2022/10/30 12:02:59;;;;;;;0.43;0.43;;;24.00;68.90;;;24.11;51.57;95404.84;5073699;28;20689;-77
2022/10/30 12:05:34;;;;;;;0.40;0.40;;;24.00;68.90;;;24.13;50.89;95404.59;5057167;28;20289;-77
2022/10/30 12:08:09;;;;;;;0.35;0.35;;;24.00;68.80;;;24.13;51.04;95400.03;5074261;28;20530;-77
2022/10/30 12:10:54;;;;;;;0.32;0.32;;;24.00;68.60;;;24.13;50.93;95401.91;5111139;28;20221;-77
2022/10/30 12:13:23;;;;;;;0.55;0.55;;;24.00;68.60;;;24.14;50.96;95400.84;5061015;28;20240;-77
2022/10/30 12:16:12;;;;;;;0.40;0.40;;;24.00;68.80;;;24.09;51.03;95385.56;5077473;28;20195;-77
2022/10/30 12:18:40;;;;;;;0.45;0.45;;;24.00;68.60;;;24.16;50.84;95395.19;5094099;28;20188;-77
2022/10/30 12:21:08;;;;;;;0.40;0.40;;;24.00;68.70;;;24.17;50.96;95399.50;5077266;28;20194;-77
2022/10/30 12:23:47;;;;;;;0.40;0.40;;;24.00;68.70;;;24.16;51.05;95390.66;5077515;28;20191;-77
2022/10/30 12:26:35;;;;;;;0.50;0.50;;;24.00;68.60;;;24.14;50.97;95382.06;5096033;28;20537;-77
2022/10/30 12:29:46;;;;;;;0.40;0.40;;;24.00;68.70;;;24.18;50.75;95390.38;5111259;28;20196;-80
2022/10/30 12:32:54;;;;;;;0.40;0.40;;;24.00;68.50;;;24.17;51.07;95388.78;5080162;28;20233;-77
2022/10/30 12:36:05;;;;;;;0.45;0.45;;;24.10;68.50;;;24.18;50.91;95382.34;5061984;28;20660;-77
2022/10/30 12:39:03;;;;;;;0.50;0.50;;;24.00;68.50;;;24.13;50.85;95383.97;5077001;28;20249;-77
2022/10/30 12:41:45;;;;;;;0.40;0.40;;;24.10;68.40;;;24.19;50.94;95386.66;5093821;28;20281;-77
2022/10/30 12:49:14;;;;;;;0.50;0.50;;;24.00;68.50;;;24.16;50.68;95389.84;5036215;28;20301;-77
2022/10/30 12:52:13;;;;;;;0.30;0.30;;;24.00;68.20;;;24.17;50.81;95386.91;5020826;28;20279;-77
2022/10/30 12:55:26;;;;;;;0.40;0.40;;;24.10;68.40;;;24.18;50.77;95380.50;5019946;28;20290;-77
2022/10/30 12:58:14;;;;;;;0.50;0.50;;;24.10;68.40;;;24.20;50.59;95382.91;5037386;28;20224;-77
2022/10/30 13:01:48;;;;;;;0.32;0.32;;;24.10;68.40;;;24.16;50.94;95371.91;5020626;28;20216;-77
2022/10/30 13:04:33;;;;;;;0.40;0.40;;;24.10;68.40;;;24.21;50.71;95371.09;5037188;28;20200;-77
2022/10/30 13:07:12;;;;;;;0.60;0.60;;;24.10;68.30;;;24.23;50.50;95375.13;5036301;28;20172;-77
2022/10/30 13:10:16;;;;;;;0.50;0.50;;;24.10;68.30;;;24.23;50.64;95369.78;5019638;28;20193;-77
2022/10/30 13:13:34;;;;;;;0.40;0.40;;;24.10;68.20;;;24.23;50.75;95377.81;5034063;28;20216;-77
2022/10/30 13:21:48;;;;;;;0.30;0.30;;;24.10;68.40;;;24.19;50.72;95373.25;4977179;28;20349;-79
2022/10/30 13:24:45;;;;;;;0.38;0.38;;;24.10;68.30;;;24.21;50.62;95371.09;5011089;28;20674;-80
2022/10/30 13:27:28;;;;;;;0.40;0.40;;;24.10;68.10;;;24.24;50.56;95375.91;4980747;28;20269;-79
2022/10/30 13:30:22;;;;;;;0.30;0.30;;;24.10;68.20;;;24.23;50.68;95366.25;4996842;28;20234;-79
2022/10/30 13:37:52;;;;;;;0.50;0.50;;;24.10;68.20;;;24.24;50.50;95368.69;5032838;22;20234;-77
2022/10/30 13:40:42;;;;;;;0.52;0.52;;;24.20;68.40;;;24.24;50.16;95363.34;5076080;28;20172;-77
2022/10/30 13:43:58;;;;;;;0.40;0.40;;;24.20;68.30;;;24.28;50.59;95363.63;5075870;28;20217;-77
2022/10/30 13:46:52;;;;;;;0.40;0.40;;;24.10;68.20;;;24.29;50.40;95360.66;5075945;28;20508;-77
2022/10/30 13:58:50;;;;;;;0.40;0.40;;;24.20;68.40;;;24.22;50.41;95362.78;5067762;22;20704;-79
2022/10/30 14:01:52;;;;;;;0.40;0.40;;;24.20;68.20;;;24.27;50.45;95368.16;5076749;28;20527;-79
2022/10/30 14:05:00;;;;;;;0.50;0.50;;;24.20;68.30;;;24.29;50.60;95373.22;5060178;28;20195;-79
2022/10/30 14:08:00;;;;;;;0.40;0.40;;;24.20;68.30;;;24.29;50.36;95365.19;5088479;28;20609;-79
2022/10/30 14:10:53;;;;;;;0.40;0.40;;;24.20;68.30;;;24.33;50.33;95368.97;5075241;28;20248;-79
2022/10/30 14:13:55;;;;;;;0.40;0.40;;;24.20;68.10;;;24.29;50.39;95366.00;5039444;28;20228;-79
2022/10/30 14:25:07;;;;;;;0.40;0.40;;;24.20;68.10;;;24.29;50.21;95373.22;5054815;28;20632;-79
2022/10/30 14:28:03;;;;;;;0.35;0.35;;;24.20;68.10;;;24.27;50.50;95364.69;5055107;28;20278;-79
2022/10/30 14:30:48;;;;;;;0.30;0.30;;;24.20;68.10;;;24.33;50.44;95374.31;5070400;28;20191;-79
2022/10/30 14:33:39;;;;;;;0.38;0.38;;;24.20;68.10;;;24.33;50.23;95377.00;5071159;28;20216;-79
2022/10/30 14:36:26;;;;;;;0.30;0.30;;;24.20;68.10;;;24.35;50.48;95377.56;5055970;28;20381;-79
2022/10/30 14:39:29;;;;;;;0.50;0.50;;;24.20;68.00;;;24.34;50.45;95375.13;5054854;28;20176;-79
2022/10/30 14:42:25;;;;;;;0.32;0.32;;;24.20;68.00;;;24.36;50.59;95372.97;5039922;28;20188;-79
2022/10/30 14:45:14;;;;;;;0.30;0.30;;;24.20;67.90;;;24.35;50.29;95372.19;5039612;28;20630;-79
2022/10/30 14:48:06;;;;;;;0.40;0.40;;;24.20;67.80;;;24.37;50.25;95371.91;5039252;28;20254;-77
2022/10/30 14:51:20;;;;;;;0.40;0.40;;;24.20;67.80;;;24.35;50.29;95374.06;5053417;28;20282;-76
2022/10/30 14:54:24;;;;;;;0.40;0.40;;;24.20;67.90;;;24.33;49.91;95370.81;5060987;28;20307;-76
2022/10/30 14:57:47;;;;;;;0.40;0.40;;;24.20;67.80;;;24.34;50.12;95364.41;5052016;28;20213;-77
2022/10/30 15:00:22;;;;;;;0.30;0.30;;;24.20;68.00;;;24.35;50.11;95372.19;5010147;28;20211;-77
2022/10/30 15:03:37;;;;;;;0.40;0.40;;;24.20;67.80;;;24.34;50.34;95367.91;5053793;28;20217;-77
2022/10/30 15:06:38;;;;;;;0.35;0.35;;;24.20;67.90;;;24.33;50.35;95371.66;5040969;28;20208;-78
2022/10/30 15:09:48;;;;;;;0.40;0.40;;;24.20;67.80;;;24.32;50.18;95361.19;5036632;28;20501;-76
2022/10/30 15:12:42;;;;;;;0.40;0.40;;;24.20;67.80;;;24.32;50.17;95364.66;5050115;28;20278;-77
2022/10/30 15:15:31;;;;;;;0.50;0.50;;;24.20;67.80;;;24.32;50.01;95364.66;5054091;28;20195;-77
2022/10/30 15:18:08;;;;;;;0.40;0.40;;;24.20;67.70;;;24.33;50.07;95363.59;5070799;28;20202;-76
2022/10/30 15:20:37;;;;;;;0.30;0.30;;;24.20;67.70;;;24.33;50.08;95360.09;5018225;28;20180;-76
2022/10/30 15:33:47;;;;;;;0.50;0.50;;;23.30;68.20;;;22.53;52.66;95359.16;5110068;27;20572;-78
2022/10/30 15:36:29;;;;;;;0.40;0.40;;;22.90;69.20;;;22.69;52.38;95353.91;5037702;28;20214;-77
2022/10/30 15:39:25;;;;;;;0.50;0.50;;;22.80;69.60;;;22.99;52.12;95357.81;5072882;28;20208;-78
2022/10/30 15:42:03;;;;;;;0.43;0.43;;;22.90;69.60;;;23.20;51.49;95356.06;5059575;28;20184;-78
2022/10/30 15:44:39;;;;;;;0.40;0.40;;;23.00;69.50;;;23.38;51.54;95362.06;5028892;28;20334;-78
2022/10/30 15:47:16;;;;;;;0.40;0.40;;;23.10;69.30;;;23.49;51.30;95356.47;5033952;28;20207;-78
2022/10/30 15:49:53;;;;;;;0.40;0.40;;;23.20;69.20;;;23.61;51.26;95358.13;5012836;28;20526;-78
2022/10/30 15:52:29;;;;;;;0.47;0.47;;;23.40;69.20;;;23.71;51.16;95350.09;5014373;28;20204;-78
2022/10/30 15:55:02;;;;;;;0.40;0.40;;;23.50;69.10;;;23.79;51.09;95354.13;5012719;28;20571;-77
2022/10/30 15:57:34;;;;;;;0.40;0.40;;;23.50;69.00;;;23.86;51.06;95354.66;5026321;28;20287;-79
2022/10/30 16:00:30;;;;;;;0.40;0.40;;;23.60;68.90;;;23.94;50.83;95356.88;5046352;28;20537;-77
2022/10/30 16:03:12;;;;;;;0.50;0.50;;;23.70;68.80;;;24.01;50.79;95350.44;5032178;28;20642;-77
2022/10/30 16:05:39;;;;;;;0.60;0.60;;;23.80;69.70;;;24.05;50.75;95351.53;5032042;28;20216;-77
2022/10/30 16:08:19;;;;;;;0.40;0.40;;;23.90;68.70;;;24.09;50.70;95353.38;5030792;28;20270;-77
2022/10/30 16:10:47;;;;;;;0.40;0.40;;;23.90;68.50;;;24.16;50.75;95353.16;5031132;28;20188;-77
2022/10/30 16:13:30;;;;;;;0.40;0.40;;;24.00;68.50;;;24.19;50.53;95354.47;5031058;28;20226;-77
2022/10/30 16:15:59;;;;;;;0.40;0.40;;;24.00;68.30;;;24.22;50.60;95353.97;5031251;28;20231;-77
2022/10/30 16:18:30;;;;;;;0.38;0.38;;;24.00;68.30;;;24.24;49.94;95355.31;5014771;28;20215;-77
2022/10/30 16:21:04;;;;;;;0.35;0.35;;;24.00;68.20;;;24.24;50.22;95352.63;5011433;28;20197;-77
2022/10/30 16:23:45;;;;;;;0.40;0.40;;;24.10;68.20;;;24.28;50.26;95353.69;5011038;28;20222;-77
2022/10/30 16:26:32;;;;;;;0.55;0.55;;;24.10;68.10;;;24.30;49.97;95356.91;5014868;28;20296;-76
2022/10/30 16:29:12;;;;;;;0.50;0.50;;;24.10;68.10;;;24.33;50.05;95354.75;5011138;28;20203;-77
2022/10/30 16:31:42;;;;;;;0.40;0.40;;;24.10;68.00;;;24.30;49.92;95346.19;5019221;28;20263;-77
2022/10/30 16:34:25;;;;;;;0.40;0.40;;;24.20;68.00;;;24.36;50.23;95356.91;5027742;28;20223;-76
2022/10/30 16:36:52;;;;;;;0.50;0.50;;;24.10;67.90;;;24.34;49.86;95351.81;5007406;28;20220;-81
2022/10/30 16:39:21;;;;;;;0.40;0.40;;;24.20;68.00;;;24.38;49.83;95357.44;5031830;28;20192;-77
2022/10/30 16:41:48;;;;;;;0.40;0.40;;;24.10;68.00;;;24.38;50.00;95360.13;5025284;28;20627;-77
2022/10/30 16:44:24;;;;;;;0.38;0.38;;;24.20;68.00;;;24.38;49.84;95363.59;5021106;28;20522;-77
2022/10/30 16:47:06;;;;;;;0.50;0.50;;;24.10;67.80;;;24.39;49.87;95361.72;5006250;28;20525;-78
2022/10/30 16:49:41;;;;;;;0.40;0.40;;;24.20;67.80;;;24.36;49.65;95365.72;5005823;28;20705;-77
2022/10/30 16:52:28;;;;;;;0.40;0.40;;;24.20;67.80;;;24.39;49.63;95361.72;4992406;28;20550;-77
2022/10/30 16:55:12;;;;;;;0.40;0.40;;;24.20;67.70;;;24.40;49.60;95363.31;5013933;28;20219;-78
2022/10/30 16:57:47;;;;;;;0.40;0.40;;;24.20;67.70;;;24.40;49.62;95369.50;5016601;28;20204;-77
2022/10/30 17:00:25;;;;;;;0.50;0.50;;;24.20;67.70;;;24.40;49.62;95361.47;5001389;28;20291;-78
2022/10/30 17:02:56;;;;;;;0.40;0.40;;;24.20;67.60;;;24.41;49.71;95364.94;5007651;28;20270;-77
2022/10/30 17:05:38;;;;;;;0.40;0.40;;;24.20;67.70;;;24.38;49.64;95358.25;5001606;28;20208;-77
2022/10/30 17:08:16;;;;;;;0.40;0.40;;;24.20;67.60;;;24.40;49.66;95364.16;5017986;28;20659;-78
2022/10/30 17:10:58;;;;;;;0.38;0.38;;;24.20;67.60;;;24.35;49.67;95363.31;5018443;28;20694;-78
2022/10/30 17:13:41;;;;;;;0.50;0.50;;;24.20;67.60;;;24.40;49.71;95363.31;5034379;28;20634;-78
2022/10/30 17:16:28;;;;;;;0.30;0.30;;;24.20;67.50;;;24.39;49.58;95367.06;5003254;28;20193;-77
2022/10/30 17:19:20;;;;;;;0.40;0.40;;;24.20;67.50;;;24.40;49.57;95372.19;5002988;28;20270;-78
2022/10/30 17:21:51;;;;;;;0.40;0.40;;;24.20;68.40;;;24.39;49.77;95375.13;5019208;28;20190;-78
2022/10/30 17:24:24;;;;;;;0.40;0.40;;;24.20;67.50;;;24.38;49.46;95371.66;5002280;28;20204;-78
2022/10/30 17:26:59;;;;;;;0.35;0.35;;;24.20;67.50;;;24.39;49.73;95369.75;4994050;28;20280;-77
2022/10/30 17:29:36;;;;;;;0.40;0.40;;;24.20;67.50;;;24.39;49.29;95370.56;5014228;28;20228;-77
2022/10/30 17:32:22;;;;;;;0.40;0.40;;;24.20;67.50;;;24.34;49.39;95373.25;4997502;28;20257;-77
2022/10/30 17:35:00;;;;;;;0.45;0.45;;;24.10;67.50;;;24.37;49.14;95371.91;4981121;28;20247;-78
2022/10/30 17:37:28;;;;;;;0.50;0.50;;;24.20;67.50;;;24.37;49.30;95366.56;4996653;28;20181;-77
2022/10/30 17:39:56;;;;;;;0.30;0.30;;;24.20;67.50;;;24.40;49.56;95376.72;4997159;28;20656;-77
2022/10/30 17:42:23;;;;;;;0.40;0.40;;;24.20;67.50;;;24.39;49.46;95369.75;4980767;28;20262;-77
2022/10/30 17:44:50;;;;;;;0.40;0.40;;;24.20;67.50;;;24.39;49.53;95372.44;4998190;28;20539;-77
2022/10/30 17:47:19;;;;;;;0.30;0.30;;;24.20;67.50;;;24.38;49.24;95368.97;4980937;28;20259;-77
2022/10/30 17:49:48;;;;;;;0.38;0.38;;;24.10;67.70;;;24.39;49.35;95373.25;4996902;28;20204;-77
2022/10/30 17:52:20;;;;;;;0.43;0.43;;;24.20;67.40;;;24.39;49.41;95375.13;4980729;28;20247;-77
2022/10/30 17:54:48;;;;;;;0.40;0.40;;;24.20;67.40;;;24.38;49.47;95371.66;4979733;28;20644;-77
2022/10/30 17:57:16;;;;;;;0.30;0.30;;;24.20;67.40;;;24.38;49.32;95374.31;4996721;28;20209;-77
2022/10/30 17:59:43;;;;;;;0.32;0.32;;;24.10;67.30;;;24.40;49.54;95376.72;4981437;28;20233;-77
2022/10/30 18:02:20;;;;;;;0.40;0.40;;;24.20;67.40;;;24.40;49.45;95371.38;4980316;28;20295;-77
2022/10/30 18:04:49;;;;;;;0.45;0.45;;;24.20;67.30;;;24.40;49.03;95371.38;4996385;28;20240;-77
2022/10/30 18:07:16;;;;;;;0.40;0.40;;;24.20;67.40;;;24.36;49.46;95367.63;4979926;28;20636;-77
2022/10/30 18:09:43;;;;;;;0.30;0.30;;;24.20;67.30;;;24.38;49.24;95368.16;4979862;28;20202;-77
2022/10/30 18:12:14;;;;;;;0.40;0.40;;;24.20;67.30;;;24.39;49.40;95373.25;4979857;28;20205;-77
2022/10/30 18:14:42;;;;;;;0.40;0.40;;;24.20;67.30;;;24.35;49.52;95374.06;4996339;28;20191;-77
2022/10/30 18:17:10;;;;;;;0.38;0.38;;;24.10;67.20;;;24.35;49.07;95363.31;4979875;28;20200;-77
2022/10/30 18:19:37;;;;;;;0.40;0.40;;;24.20;67.20;;;24.38;49.33;95368.97;4994008;28;20200;-77
2022/10/30 18:22:04;;;;;;;0.30;0.30;;;24.20;67.20;;;24.40;49.46;95374.03;4999225;28;20581;-77
2022/10/30 18:24:32;;;;;;;0.40;0.40;;;24.10;67.10;;;24.38;49.10;95368.97;4999164;28;20205;-77
2022/10/30 18:26:59;;;;;;;0.32;0.32;;;24.20;67.20;;;24.38;49.22;95374.31;5015537;28;20197;-77
2022/10/30 18:29:26;;;;;;;0.30;0.30;;;24.10;67.10;;;24.38;49.05;95371.66;5015127;28;20221;-77
2022/10/30 18:31:53;;;;;;;0.30;0.30;;;24.10;67.10;;;24.37;49.21;95369.25;4998867;28;20793;-77
2022/10/30 18:34:21;;;;;;;0.30;0.30;;;24.10;67.10;;;24.38;49.37;95373.53;5014380;28;20289;-77
2022/10/30 18:36:48;;;;;;;0.32;0.32;;;24.20;67.20;;;24.35;49.00;95369.50;5014768;28;20197;-77
2022/10/30 18:39:15;;;;;;;0.30;0.30;;;24.10;67.00;;;24.37;49.21;95374.59;5014937;28;20216;-77
2022/10/30 18:41:45;;;;;;;0.40;0.40;;;24.20;67.10;;;24.38;49.04;95377.00;4998887;28;20190;-77
2022/10/30 18:44:17;;;;;;;0.43;0.43;;;24.10;66.90;;;24.38;49.05;95373.53;5014951;28;20193;-77
2022/10/30 18:46:45;;;;;;;0.50;0.50;;;24.10;66.90;;;24.36;49.11;95373.78;5015311;28;20186;-77
2022/10/30 18:49:12;;;;;;;0.30;0.30;;;24.10;67.00;;;24.37;48.77;95375.38;5015938;28;20625;-77
2022/10/30 18:51:40;;;;;;;0.40;0.40;;;24.10;66.90;;;24.37;48.52;95370.03;5015355;28;20568;-77
2022/10/30 18:54:14;;;;;;;0.38;0.38;;;24.10;66.90;;;24.35;49.33;95368.69;4999051;28;20562;-77
2022/10/30 18:56:41;;;;;;;0.30;0.30;;;24.10;66.80;;;24.34;49.27;95370.59;5015262;28;20223;-77
2022/10/30 18:59:08;;;;;;;0.40;0.40;;;24.10;66.90;;;24.36;49.10;95370.31;4998590;28;20595;-77
2022/10/30 19:01:36;;;;;;;0.40;0.40;;;24.10;66.70;;;24.37;49.09;95366.56;4998440;28;20220;-77
2022/10/30 19:04:09;;;;;;;0.38;0.38;;;24.10;66.80;;;24.36;49.02;95367.63;4998445;28;20329;-77
2022/10/30 19:06:37;;;;;;;0.50;0.50;;;24.10;66.70;;;24.35;48.75;95366.00;5014698;28;20275;-77
2022/10/30 19:09:05;;;;;;;0.30;0.30;;;24.10;66.70;;;24.35;49.08;95363.31;4998523;28;20523;-77
2022/10/30 19:11:33;;;;;;;0.40;0.40;;;24.10;66.80;;;24.36;49.17;95364.94;4998439;28;20192;-77
2022/10/30 19:14:12;;;;;;;0.45;0.45;;;24.10;66.70;;;24.30;49.09;95364.13;4999007;28;20686;-77
2022/10/30 19:16:39;;;;;;;0.40;0.40;;;24.10;66.70;;;24.35;49.02;95363.31;5014592;28;20293;-77
2022/10/30 19:19:07;;;;;;;0.40;0.40;;;24.10;67.70;;;24.33;48.77;95368.97;5014209;28;20531;-77
2022/10/30 19:21:35;;;;;;;0.43;0.43;;;24.10;66.80;;;24.34;48.92;95369.75;4998290;28;20638;-77
2022/10/30 19:24:08;;;;;;;0.30;0.30;;;24.10;66.80;;;24.33;49.04;95363.59;4998291;28;20607;-77